Time;durP1;ratioP1;P1;durP2;ratioP2;P2;SDS_P1;SDS_P2;PMS_P1;PMS_P2;Temp;Humidity;BMP_temperature;BMP_pressure;BME280_temperature;BME280_humidity;BME280_pressure;Samples;Min_cycle;Max_cycle;Signal;HPM_P1;HPM_P2
2023/07/18 00:00:36;;;;;;;9.77;5.80;;;21.00;99.90;;;;;;5130517;27;20088;-67
2023/07/18 00:03:03;;;;;;;12.48;5.28;;;21.00;99.90;;;;;;5131193;27;20035;-67
2023/07/18 00:05:37;;;;;;;9.38;5.63;;;20.90;99.90;;;;;;5133054;27;20100;-67
2023/07/18 00:08:04;;;;;;;10.43;5.10;;;21.00;99.90;;;;;;5119951;27;20399;-65
2023/07/18 00:10:32;;;;;;;7.10;5.07;;;21.00;99.90;;;;;;5120364;27;20110;-67
2023/07/18 00:12:59;;;;;;;10.40;5.28;;;21.10;99.90;;;;;;5131369;27;20057;-67
2023/07/18 00:15:26;;;;;;;7.40;4.90;;;21.10;99.90;;;;;;5131946;27;20092;-67
2023/07/18 00:17:54;;;;;;;8.27;4.88;;;21.10;99.90;;;;;;5129766;27;20091;-67
2023/07/18 00:20:23;;;;;;;11.43;5.32;;;21.10;99.90;;;;;;5129448;27;20050;-67
2023/07/18 00:22:50;;;;;;;10.07;4.88;;;21.20;99.90;;;;;;5128364;27;20037;-67
2023/07/18 00:25:19;;;;;;;9.52;5.30;;;21.10;99.90;;;;;;5133319;27;20038;-67
2023/07/18 00:27:49;;;;;;;10.30;4.93;;;21.30;99.90;;;;;;5132249;27;20486;-67
2023/07/18 00:30:18;;;;;;;9.98;4.80;;;21.30;99.90;;;;;;5133362;27;20035;-67
2023/07/18 00:32:45;;;;;;;7.95;4.55;;;21.30;99.90;;;;;;5111131;27;20043;-67
2023/07/18 00:35:16;;;;;;;;;;;21.30;99.90;;;;;;5115172;27;20587;-67
2023/07/18 00:37:43;;;;;;;11.05;4.80;;;21.20;99.90;;;;;;5097900;28;20378;-67
2023/07/18 00:40:14;;;;;;;6.25;5.03;;;21.10;99.90;;;;;;5132840;27;20043;-67
2023/07/18 00:42:45;;;;;;;9.32;4.88;;;21.10;99.90;;;;;;5112960;27;20034;-67
2023/07/18 00:45:13;;;;;;;10.57;5.13;;;21.00;99.90;;;;;;5133349;27;20373;-67
2023/07/18 00:47:43;;;;;;;10.30;5.32;;;21.10;99.90;;;;;;5111443;27;20430;-67
2023/07/18 00:50:18;;;;;;;9.85;5.10;;;21.00;99.90;;;;;;5109905;28;20039;-67
2023/07/18 00:52:48;;;;;;;11.75;5.07;;;21.00;99.90;;;;;;5120458;27;20126;-67
2023/07/18 00:55:16;;;;;;;9.85;5.50;;;20.90;99.90;;;;;;5105993;27;20061;-67
2023/07/18 00:57:45;;;;;;;9.65;5.47;;;20.80;99.90;;;;;;5104841;27;20478;-67
2023/07/18 01:00:13;;;;;;;9.63;5.45;;;20.70;99.90;;;;;;5109555;28;20055;-67
2023/07/18 01:02:41;;;;;;;8.73;4.93;;;20.70;99.90;;;;;;5129872;27;20039;-67
2023/07/18 01:05:10;;;;;;;12.98;5.70;;;20.70;99.90;;;;;;5132733;27;20043;-67
2023/07/18 01:07:40;;;;;;;9.10;5.22;;;20.60;99.90;;;;;;5113919;27;20039;-67
2023/07/18 01:10:23;;;;;;;8.98;4.80;;;20.70;99.90;;;;;;5126737;27;20049;-67
2023/07/18 01:12:55;;;;;;;7.70;5.10;;;20.60;99.90;;;;;;5131300;27;20399;-67
2023/07/18 01:15:24;;;;;;;10.75;5.28;;;20.50;99.90;;;;;;5118567;27;20460;-67
2023/07/18 01:17:51;;;;;;;9.82;5.47;;;20.30;99.90;;;;;;5105505;28;20391;-67
2023/07/18 01:20:19;;;;;;;;;;;20.20;99.90;;;;;;5114021;28;20109;-67
2023/07/18 01:22:49;;;;;;;13.45;5.47;;;20.10;99.90;;;;;;5132487;27;19926;-67
2023/07/18 01:25:17;;;;;;;9.70;5.80;;;20.10;99.90;;;;;;5109024;28;20035;-67
2023/07/18 01:27:46;;;;;;;14.25;5.13;;;20.00;99.90;;;;;;5123614;27;20556;-67
2023/07/18 01:30:13;;;;;;;10.15;5.28;;;19.90;99.90;;;;;;5108797;28;20070;-67
2023/07/18 01:32:41;;;;;;;9.98;5.47;;;19.90;99.90;;;;;;5106522;28;20412;-67
2023/07/18 01:35:09;;;;;;;10.95;5.60;;;19.90;99.90;;;;;;5097376;28;20043;-67
2023/07/18 01:37:37;;;;;;;10.30;5.05;;;19.90;99.90;;;;;;5106008;28;20051;-67
2023/07/18 01:40:08;;;;;;;9.88;5.55;;;19.80;99.90;;;;;;5118471;28;20051;-67
2023/07/18 01:42:35;;;;;;;8.23;5.20;;;19.90;99.90;;;;;;5130189;27;20035;-67
2023/07/18 01:45:03;;;;;;;12.95;5.00;;;19.90;99.90;;;;;;5131314;28;20401;-67
2023/07/18 01:47:34;;;;;;;11.32;5.60;;;19.80;99.90;;;;;;5132204;27;20031;-67
2023/07/18 01:50:03;;;;;;;8.52;5.38;;;19.80;99.90;;;;;;5126812;27;20532;-67
2023/07/18 01:52:31;;;;;;;9.30;5.15;;;19.70;99.90;;;;;;5110879;28;20042;-67
2023/07/18 01:54:59;;;;;;;11.40;5.63;;;19.60;99.90;;;;;;5134338;27;20039;-67
2023/07/18 01:57:43;;;;;;;9.15;5.35;;;19.60;99.90;;;;;;5115566;27;20086;-67
2023/07/18 02:00:11;;;;;;;9.65;5.25;;;19.60;99.90;;;;;;5100848;27;20077;-67
2023/07/18 02:02:41;;;;;;;8.68;5.15;;;19.60;99.90;;;;;;5127597;27;20059;-67
2023/07/18 02:05:12;;;;;;;10.63;5.68;;;19.60;99.90;;;;;;5117548;27;20057;-67
2023/07/18 02:07:39;;;;;;;12.00;5.15;;;19.50;99.90;;;;;;5108890;27;20047;-67
2023/07/18 02:10:06;;;;;;;8.73;5.22;;;19.40;99.90;;;;;;5136138;27;20051;-67
2023/07/18 02:12:33;;;;;;;;;;;19.40;99.90;;;;;;5115471;27;20085;-67
2023/07/18 02:15:01;;;;;;;9.70;5.30;;;19.40;99.90;;;;;;5117022;27;19919;-67
2023/07/18 02:17:28;;;;;;;9.30;5.32;;;19.20;99.90;;;;;;5129271;27;20039;-67
2023/07/18 02:19:55;;;;;;;11.55;5.85;;;19.20;99.90;;;;;;5106822;27;20074;-67
2023/07/18 02:22:21;;;;;;;11.95;5.55;;;19.10;99.90;;;;;;5128702;27;20521;-67
2023/07/18 02:24:48;;;;;;;10.05;5.65;;;19.00;99.90;;;;;;5112765;27;20039;-67
2023/07/18 02:27:15;;;;;;;10.07;5.97;;;18.90;99.90;;;;;;5135690;27;20057;-66
2023/07/18 02:29:42;;;;;;;10.32;5.57;;;18.80;99.90;;;;;;5108629;27;20035;-67
2023/07/18 02:32:09;;;;;;;10.55;6.00;;;18.70;99.90;;;;;;5115940;27;20043;-67
2023/07/18 02:34:38;;;;;;;12.40;5.63;;;18.70;99.90;;;;;;5124972;27;20043;-67
2023/07/18 02:37:05;;;;;;;8.73;5.65;;;18.60;99.90;;;;;;5126472;27;20253;-67
2023/07/18 02:39:34;;;;;;;12.15;5.32;;;18.60;99.90;;;;;;5116726;27;20066;-67
2023/07/18 02:42:02;;;;;;;14.52;5.88;;;18.60;99.90;;;;;;5114557;27;20053;-66
2023/07/18 02:44:29;;;;;;;10.57;5.82;;;18.60;99.90;;;;;;5115810;27;20491;-66
2023/07/18 02:46:56;;;;;;;8.82;5.95;;;18.50;99.90;;;;;;5135288;27;20054;-66
2023/07/18 02:49:23;;;;;;;8.32;5.47;;;18.60;99.90;;;;;;5129245;27;20035;-66
2023/07/18 02:51:49;;;;;;;9.88;5.97;;;18.60;99.90;;;;;;5114608;27;20040;-66
2023/07/18 02:54:17;;;;;;;12.48;5.93;;;18.60;99.90;;;;;;5128314;27;20047;-66
2023/07/18 02:56:44;;;;;;;10.25;5.97;;;18.50;99.90;;;;;;5108983;28;20066;-66
2023/07/18 02:59:11;;;;;;;11.05;5.70;;;18.40;99.90;;;;;;5113887;27;20077;-67
2023/07/18 03:01:38;;;;;;;11.70;5.55;;;18.40;99.90;;;;;;5114871;27;20043;-67
2023/07/18 03:04:05;;;;;;;8.30;5.43;;;18.40;99.90;;;;;;5105340;27;20044;-66
2023/07/18 03:06:32;;;;;;;9.40;5.70;;;18.40;99.90;;;;;;5108224;27;20035;-66
2023/07/18 03:08:59;;;;;;;9.52;5.75;;;18.20;99.90;;;;;;5114759;27;20047;-66
2023/07/18 03:11:26;;;;;;;13.35;6.90;;;18.00;99.90;;;;;;5111312;28;20071;-66
2023/07/18 03:13:54;;;;;;;10.35;5.53;;;18.10;99.90;;;;;;5131251;27;20403;-66
2023/07/18 03:16:21;;;;;;;11.70;5.75;;;18.00;99.90;;;;;;5135225;27;20039;-66
2023/07/18 03:18:48;;;;;;;10.70;5.72;;;18.00;99.90;;;;;;5107669;27;20061;-66
2023/07/18 03:21:16;;;;;;;12.02;6.28;;;18.50;99.90;;;;;;5105055;27;20039;-66
2023/07/18 03:23:43;;;;;;;9.35;5.78;;;17.90;99.90;;;;;;5106496;27;20051;-66
2023/07/18 03:26:11;;;;;;;11.05;5.97;;;17.90;99.90;;;;;;5134626;27;20600;-66
2023/07/18 03:28:38;;;;;;;8.55;6.07;;;17.80;99.90;;;;;;5133811;27;20091;-66
2023/07/18 03:31:05;;;;;;;12.35;6.22;;;17.90;99.90;;;;;;5134476;27;20039;-66
2023/07/18 03:33:34;;;;;;;9.00;5.78;;;17.90;99.90;;;;;;5130194;27;20099;-66
2023/07/18 03:36:01;;;;;;;8.65;5.70;;;17.90;99.90;;;;;;5117023;27;20039;-66
2023/07/18 03:38:28;;;;;;;9.90;5.68;;;17.90;99.90;;;;;;5109552;27;20057;-66
2023/07/18 03:40:57;;;;;;;8.75;6.63;;;18.00;99.90;;;;;;5128273;27;20051;-66
2023/07/18 03:43:24;;;;;;;10.45;5.88;;;18.00;99.90;;;;;;5111078;28;20040;-66
2023/07/18 03:45:51;;;;;;;7.50;5.25;;;18.00;99.90;;;;;;5136610;27;20027;-66
2023/07/18 03:48:17;;;;;;;14.07;6.47;;;18.00;99.90;;;;;;5142280;27;20048;-66
2023/07/18 03:50:45;;;;;;;11.30;6.72;;;17.90;99.90;;;;;;5141612;27;20538;-66
2023/07/18 03:53:12;;;;;;;12.05;6.38;;;17.90;99.90;;;;;;5141153;27;20039;-66
2023/07/18 03:55:39;;;;;;;9.52;6.18;;;17.90;99.90;;;;;;5141086;27;20035;-66
2023/07/18 03:58:06;;;;;;;13.48;6.22;;;17.90;99.90;;;;;;5140778;27;20487;-66
2023/07/18 04:00:32;;;;;;;11.15;5.57;;;17.80;99.90;;;;;;5143518;27;20063;-66
2023/07/18 04:02:59;;;;;;;8.35;5.60;;;17.80;99.90;;;;;;5125528;27;20039;-66
2023/07/18 04:05:26;;;;;;;7.63;5.50;;;17.80;99.90;;;;;;5143813;27;20039;-66
2023/07/18 04:07:53;;;;;;;10.60;5.60;;;17.80;99.90;;;;;;5143713;27;20039;-66
2023/07/18 04:10:20;;;;;;;9.90;6.43;;;17.70;99.90;;;;;;5139380;27;20043;-66
2023/07/18 04:12:46;;;;;;;11.13;5.68;;;17.70;99.90;;;;;;5142473;27;20027;-66
2023/07/18 04:15:14;;;;;;;9.98;5.95;;;17.70;99.90;;;;;;5145221;27;20403;-66
2023/07/18 04:17:41;;;;;;;9.27;5.93;;;17.70;99.90;;;;;;5141256;27;20099;-66
2023/07/18 04:20:09;;;;;;;9.45;5.50;;;17.80;99.90;;;;;;5141833;27;20122;-66
2023/07/18 04:22:35;;;;;;;9.68;5.63;;;17.80;99.90;;;;;;5145685;27;20034;-66
2023/07/18 04:25:02;;;;;;;10.57;5.38;;;17.80;99.90;;;;;;5144541;27;20051;-66
2023/07/18 04:27:29;;;;;;;9.77;5.90;;;17.90;99.90;;;;;;5141963;27;20038;-66
2023/07/18 04:29:56;;;;;;;12.95;5.85;;;17.90;99.90;;;;;;5144309;27;20495;-66
2023/07/18 04:32:23;;;;;;;13.57;5.95;;;17.90;99.90;;;;;;5141488;27;20425;-66
2023/07/18 04:34:50;;;;;;;13.25;6.63;;;17.90;99.90;;;;;;5140149;27;20047;-66
2023/07/18 04:37:17;;;;;;;10.63;6.05;;;17.90;99.90;;;;;;5144070;27;20508;-66
2023/07/18 04:39:44;;;;;;;9.32;5.60;;;17.90;99.90;;;;;;5135105;27;20459;-66
2023/07/18 04:42:11;;;;;;;10.65;5.47;;;18.00;99.90;;;;;;5113732;27;20040;-66
2023/07/18 04:44:38;;;;;;;11.15;5.57;;;18.00;99.90;;;;;;5129440;27;20491;-67
2023/07/18 04:47:05;;;;;;;17.27;6.68;;;18.00;99.90;;;;;;5132168;27;20051;-67
2023/07/18 04:49:32;;;;;;;7.88;5.35;;;18.10;99.90;;;;;;5132227;27;20039;-66
2023/07/18 04:51:59;;;;;;;12.07;5.97;;;18.20;99.90;;;;;;5128824;27;20132;-66
2023/07/18 04:54:26;;;;;;;11.88;6.15;;;18.20;99.90;;;;;;5127673;27;20044;-67
2023/07/18 04:56:53;;;;;;;10.65;5.68;;;18.20;99.90;;;;;;5132280;27;20041;-67
2023/07/18 04:59:21;;;;;;;17.90;6.22;;;18.20;99.90;;;;;;5132338;27;20089;-66
2023/07/18 05:01:53;;;;;;;8.90;5.97;;;18.30;99.90;;;;;;5128859;27;20123;-67
2023/07/18 05:04:20;;;;;;;11.52;5.95;;;18.40;99.90;;;;;;5131632;27;20086;-67
2023/07/18 05:06:48;;;;;;;9.20;5.80;;;18.40;99.90;;;;;;5126309;27;20043;-66
2023/07/18 05:09:17;;;;;;;10.88;5.95;;;18.50;99.90;;;;;;5110197;28;20394;-66
2023/07/18 05:11:44;;;;;;;10.65;5.75;;;18.50;99.90;;;;;;5107173;27;20039;-66
2023/07/18 05:14:11;;;;;;;13.35;5.88;;;18.50;99.90;;;;;;5124053;27;20043;-66
2023/07/18 05:16:37;;;;;;;8.85;5.53;;;18.50;99.90;;;;;;5132947;27;20540;-66
2023/07/18 05:19:04;;;;;;;9.68;5.57;;;18.60;99.90;;;;;;5129923;27;20075;-65
2023/07/18 05:21:33;;;;;;;10.60;6.22;;;18.60;99.90;;;;;;5129450;27;20096;-66
2023/07/18 05:24:00;;;;;;;9.70;5.55;;;18.70;99.90;;;;;;5130037;27;20558;-67
2023/07/18 05:26:27;;;;;;;15.35;5.35;;;18.80;99.90;;;;;;5128699;27;20039;-67
2023/07/18 05:28:54;;;;;;;9.55;6.07;;;18.80;99.90;;;;;;5131882;27;20425;-66
2023/07/18 05:31:21;;;;;;;6.47;5.57;;;18.90;99.90;;;;;;5131620;27;20045;-67
2023/07/18 05:33:49;;;;;;;9.00;5.88;;;19.00;99.90;;;;;;5126080;27;20574;-67
2023/07/18 05:36:16;;;;;;;9.18;5.78;;;19.00;99.90;;;;;;5127306;27;20404;-67
2023/07/18 05:38:43;;;;;;;;;;;19.10;99.90;;;;;;5132729;28;20039;-66
2023/07/18 05:41:10;;;;;;;10.23;5.60;;;19.10;99.90;;;;;;5123654;28;19919;-67
2023/07/18 05:43:37;;;;;;;11.50;5.70;;;19.20;99.90;;;;;;5129539;27;20043;-67
2023/07/18 05:46:03;;;;;;;9.65;5.57;;;19.30;99.90;;;;;;5120242;28;20044;-67
2023/07/18 05:48:30;;;;;;;10.27;5.72;;;19.40;99.90;;;;;;5131827;28;20088;-67
2023/07/18 05:50:59;;;;;;;10.45;5.68;;;19.50;99.90;;;;;;5123891;28;20050;-67
2023/07/18 05:53:26;;;;;;;9.73;6.20;;;19.60;99.90;;;;;;5115177;28;20048;-66
2023/07/18 05:55:53;;;;;;;11.90;6.03;;;19.60;99.90;;;;;;5126879;28;20046;-67
2023/07/18 05:58:20;;;;;;;12.60;5.82;;;19.70;99.90;;;;;;5123465;28;20048;-67
2023/07/18 06:00:47;;;;;;;16.38;6.03;;;19.70;99.90;;;;;;5123696;27;20043;-67
2023/07/18 06:03:13;;;;;;;10.93;5.38;;;19.80;99.90;;;;;;5123644;28;20431;-67
2023/07/18 06:05:40;;;;;;;12.40;6.25;;;19.90;99.90;;;;;;5130371;27;20035;-67
2023/07/18 06:08:09;;;;;;;12.45;5.93;;;19.90;99.90;;;;;;5127174;27;20387;-67
2023/07/18 06:10:36;;;;;;;12.93;5.90;;;20.00;99.90;;;;;;5124202;28;20039;-67
2023/07/18 06:13:03;;;;;;;16.23;6.43;;;20.00;99.90;;;;;;5128064;27;20392;-67
2023/07/18 06:15:30;;;;;;;16.73;5.72;;;20.10;99.90;;;;;;5132025;28;20438;-67
2023/07/18 06:17:57;;;;;;;11.68;6.70;;;20.10;99.90;;;;;;5131834;28;20039;-67
2023/07/18 06:20:24;;;;;;;10.50;6.35;;;20.10;99.90;;;;;;5132198;28;20043;-67
2023/07/18 06:22:51;;;;;;;9.27;6.50;;;20.20;99.90;;;;;;5124650;27;20039;-67
2023/07/18 06:25:18;;;;;;;12.00;6.68;;;20.30;99.90;;;;;;5115468;27;20043;-67
2023/07/18 06:27:44;;;;;;;9.93;6.38;;;20.40;99.90;;;;;;5122358;28;20549;-67
2023/07/18 06:30:12;;;;;;;12.77;6.05;;;20.40;99.90;;;;;;5128584;28;20046;-67
2023/07/18 06:32:39;;;;;;;14.90;6.25;;;20.50;99.90;;;;;;5118851;28;20085;-67
2023/07/18 06:35:07;;;;;;;11.13;5.63;;;20.60;99.90;;;;;;5119262;27;20259;-67
2023/07/18 06:37:49;;;;;;;8.73;5.55;;;20.70;99.90;;;;;;5128253;27;20039;-67
2023/07/18 06:40:16;;;;;;;;;;;20.80;99.90;;;;;;5126805;27;20058;-67
2023/07/18 06:42:43;;;;;;;8.25;5.60;;;20.90;99.90;;;;;;5135576;27;20291;-67
2023/07/18 06:45:12;;;;;;;7.68;5.30;;;20.90;99.90;;;;;;5124882;27;20122;-67
2023/07/18 06:47:39;;;;;;;9.80;6.00;;;21.10;99.90;;;;;;5126898;27;20039;-67
2023/07/18 06:50:06;;;;;;;;;;;21.30;99.90;;;;;;5135857;27;20050;-67
2023/07/18 06:52:33;;;;;;;13.38;5.65;;;21.40;99.90;;;;;;5125520;27;19928;-67
2023/07/18 06:55:03;;;;;;;13.60;5.57;;;21.60;99.90;;;;;;5126561;27;20052;-67
2023/07/18 06:57:30;;;;;;;13.32;6.18;;;21.60;99.90;;;;;;5135011;27;20067;-67
2023/07/18 06:59:57;;;;;;;9.90;5.45;;;21.80;99.90;;;;;;5135325;27;20046;-67
2023/07/18 07:02:23;;;;;;;8.88;5.30;;;22.00;99.90;;;;;;5134370;27;20071;-67
2023/07/18 07:04:50;;;;;;;7.63;5.63;;;22.10;99.90;;;;;;5134642;27;20487;-67
2023/07/18 07:07:17;;;;;;;11.15;6.07;;;22.30;99.90;;;;;;5134668;27;20125;-67
2023/07/18 07:09:44;;;;;;;9.80;6.18;;;22.40;99.90;;;;;;5135423;27;20046;-67
2023/07/18 07:12:11;;;;;;;13.27;5.95;;;22.50;99.90;;;;;;5125653;27;20395;-67
2023/07/18 07:14:48;;;;;;;8.05;5.30;;;22.60;99.90;;;;;;5125587;27;20066;-67
2023/07/18 07:17:15;;;;;;;12.05;6.10;;;22.80;99.90;;;;;;5134664;27;20067;-67
2023/07/18 07:19:41;;;;;;;14.13;6.25;;;22.80;99.90;;;;;;5135063;27;20035;-67
2023/07/18 07:22:11;;;;;;;14.00;5.82;;;23.00;99.90;;;;;;5130718;27;20388;-67
2023/07/18 07:24:38;;;;;;;13.77;5.68;;;23.10;99.90;;;;;;5124424;27;20392;-67
2023/07/18 07:27:07;;;;;;;10.43;5.50;;;23.00;99.90;;;;;;5134841;27;20050;-67
2023/07/18 07:29:37;;;;;;;12.85;5.30;;;23.20;99.90;;;;;;5134394;27;20361;-67
2023/07/18 07:32:04;;;;;;;8.70;5.38;;;23.30;99.90;;;;;;5134873;27;20400;-67
2023/07/18 07:34:30;;;;;;;;;;;23.40;99.90;;;;;;5133563;27;20131;-67
2023/07/18 07:37:00;;;;;;;7.70;5.30;;;23.50;99.90;;;;;;5134560;27;19919;-67
2023/07/18 07:39:27;;;;;;;8.85;5.93;;;23.50;99.90;;;;;;5134146;27;20054;-67
2023/07/18 07:41:54;;;;;;;12.10;5.15;;;23.70;99.90;;;;;;5128161;27;20492;-67
2023/07/18 07:44:20;;;;;;;9.10;5.05;;;23.70;99.90;;;;;;5126295;27;20039;-67
2023/07/18 07:46:47;;;;;;;11.38;6.20;;;23.80;99.90;;;;;;5134551;27;20039;-67
2023/07/18 07:49:14;;;;;;;8.32;5.70;;;23.90;99.90;;;;;;5125474;27;20122;-67
2023/07/18 07:51:41;;;;;;;9.98;6.47;;;23.90;99.90;;;;;;5134241;27;20042;-67
2023/07/18 07:54:08;;;;;;;11.32;5.70;;;24.00;99.90;;;;;;5128829;27;20043;-67
2023/07/18 07:56:34;;;;;;;12.05;5.88;;;24.00;99.90;;;;;;5123245;27;20039;-67
2023/07/18 07:59:01;;;;;;;8.82;5.50;;;24.00;99.90;;;;;;5127773;27;20039;-67
2023/07/18 08:01:38;;;;;;;8.07;5.35;;;24.10;99.90;;;;;;5134121;27;20439;-67
2023/07/18 08:04:05;;;;;;;10.38;5.82;;;24.10;99.90;;;;;;5124876;27;20039;-67
2023/07/18 08:06:32;;;;;;;8.05;5.97;;;24.10;99.90;;;;;;5121693;27;20071;-67
2023/07/18 08:08:59;;;;;;;10.52;5.93;;;24.10;99.90;;;;;;5133656;27;20101;-67
2023/07/18 08:11:26;;;;;;;9.50;5.63;;;24.30;99.90;;;;;;5133597;27;20550;-67
2023/07/18 08:13:53;;;;;;;10.55;5.25;;;24.30;99.90;;;;;;5129366;27;20049;-67
2023/07/18 08:16:21;;;;;;;10.40;6.05;;;24.50;99.90;;;;;;5133825;27;20043;-67
2023/07/18 08:18:48;;;;;;;12.45;5.20;;;24.60;99.90;;;;;;5116861;27;20479;-67
2023/07/18 08:21:14;;;;;;;6.53;5.25;;;24.60;99.90;;;;;;5133821;27;20122;-67
2023/07/18 08:23:41;;;;;;;10.32;6.68;;;24.80;99.90;;;;;;5116837;27;20111;-67
2023/07/18 08:26:08;;;;;;;;;;;25.00;99.90;;;;;;5134093;27;20039;-67
2023/07/18 08:28:35;;;;;;;10.57;5.78;;;25.00;99.90;;;;;;5132940;27;19919;-67
2023/07/18 08:31:05;;;;;;;9.40;5.93;;;25.00;99.90;;;;;;5128138;27;20045;-67
2023/07/18 08:33:31;;;;;;;13.77;6.22;;;25.10;99.90;;;;;;5133072;27;20039;-67
2023/07/18 08:35:58;;;;;;;10.13;5.88;;;25.20;99.90;;;;;;5133435;27;20042;-67
2023/07/18 08:38:25;;;;;;;7.45;5.43;;;25.30;99.90;;;;;;5124038;27;20078;-67
2023/07/18 08:40:52;;;;;;;9.27;6.38;;;25.40;99.90;;;;;;5128850;27;20052;-67
2023/07/18 08:43:20;;;;;;;8.52;5.50;;;25.40;99.90;;;;;;5128905;27;20051;-67
2023/07/18 08:45:47;;;;;;;15.30;5.88;;;25.50;99.90;;;;;;5133170;27;20043;-68
2023/07/18 08:48:15;;;;;;;14.32;6.13;;;25.60;99.90;;;;;;5132911;27;20047;-68
2023/07/18 08:50:42;;;;;;;7.30;5.68;;;25.70;99.90;;;;;;5125082;27;20054;-68
2023/07/18 08:53:09;;;;;;;11.27;5.95;;;25.80;99.90;;;;;;5126900;27;20054;-68
2023/07/18 08:55:36;;;;;;;;;;;25.90;99.90;;;;;;5131441;27;20043;-68
2023/07/18 08:58:05;;;;;;;11.63;6.17;;;26.10;99.90;;;;;;5129642;27;19953;-67
2023/07/18 09:00:31;;;;;;;11.07;5.63;;;26.20;99.90;;;;;;5132593;27;20428;-67
2023/07/18 09:02:58;;;;;;;11.43;5.88;;;26.20;99.90;;;;;;5127563;27;20073;-68
2023/07/18 09:05:34;;;;;;;;;;;26.40;99.90;;;;;;5106448;28;20122;-68
2023/07/18 09:08:04;;;;;;;14.07;5.95;;;26.50;99.90;;;;;;5125799;27;19969;-68
2023/07/18 09:10:31;;;;;;;8.93;6.18;;;26.60;99.90;;;;;;5105238;28;20083;-67
2023/07/18 09:13:04;;;;;;;9.35;6.45;;;26.70;99.90;;;;;;5125220;27;20476;-67
2023/07/18 09:15:36;;;;;;;9.68;6.13;;;26.80;99.90;;;;;;5130183;27;20119;-67
2023/07/18 09:18:08;;;;;;;11.77;6.13;;;26.90;99.90;;;;;;5132272;27;20039;-67
2023/07/18 09:20:35;;;;;;;11.90;6.47;;;27.10;99.90;;;;;;5131427;27;20419;-67
2023/07/18 09:23:04;;;;;;;11.15;5.78;;;27.10;99.90;;;;;;5125177;27;20047;-67
2023/07/18 09:25:40;;;;;;;10.20;5.85;;;27.10;99.90;;;;;;5132352;27;20074;-67
2023/07/18 09:28:11;;;;;;;11.23;6.65;;;27.10;99.90;;;;;;5126912;27;20058;-67
2023/07/18 09:30:39;;;;;;;10.75;6.18;;;27.10;99.90;;;;;;5130461;28;20115;-67
2023/07/18 09:33:06;;;;;;;;;;;27.10;99.90;;;;;;5122396;27;20040;-67
2023/07/18 09:35:38;;;;;;;9.93;6.28;;;27.10;99.90;;;;;;5128122;27;19919;-67
2023/07/18 09:38:07;;;;;;;13.73;6.68;;;27.20;99.90;;;;;;5127084;28;20040;-68
2023/07/18 09:40:35;;;;;;;9.40;6.35;;;27.20;99.90;;;;;;5121164;28;20035;-68
2023/07/18 09:43:03;;;;;;;7.28;5.90;;;27.30;99.90;;;;;;5126322;27;20059;-67
2023/07/18 09:45:31;;;;;;;7.63;5.70;;;27.40;99.90;;;;;;5128895;28;20042;-67
2023/07/18 09:47:58;;;;;;;8.65;6.25;;;27.40;99.90;;;;;;5132302;28;20450;-67
2023/07/18 09:50:26;;;;;;;7.93;5.93;;;27.60;99.90;;;;;;5132302;27;20043;-67
2023/07/18 09:52:56;;;;;;;10.50;5.95;;;27.80;99.90;;;;;;5126514;28;20406;-67
2023/07/18 09:55:27;;;;;;;10.50;6.55;;;27.90;99.90;;;;;;5130184;27;20488;-67
2023/07/18 09:58:00;;;;;;;11.73;6.50;;;27.90;99.90;;;;;;5131981;28;20031;-67
2023/07/18 10:00:27;;;;;;;10.05;6.28;;;28.00;99.90;;;;;;5124481;27;20043;-67
2023/07/18 10:02:56;;;;;;;10.15;5.82;;;28.10;99.90;;;;;;5132071;27;20039;-67
2023/07/18 10:05:23;;;;;;;7.88;6.03;;;28.20;99.90;;;;;;5132404;28;20036;-67
2023/07/18 10:07:51;;;;;;;6.95;5.78;;;28.20;99.90;;;;;;5128086;28;20107;-68
2023/07/18 10:10:18;;;;;;;7.85;6.05;;;28.40;99.90;;;;;;5132367;27;20043;-68
2023/07/18 10:12:54;;;;;;;11.50;6.55;;;28.40;99.90;;;;;;5135645;27;20407;-67
2023/07/18 10:15:21;;;;;;;11.48;6.57;;;28.30;99.90;;;;;;5130384;27;20123;-68
2023/07/18 10:17:49;;;;;;;8.18;5.93;;;28.20;99.90;;;;;;5134369;27;20050;-68
2023/07/18 10:20:23;;;;;;;9.38;6.60;;;28.10;99.90;;;;;;5128094;27;20047;-68
2023/07/18 10:22:58;;;;;;;12.95;6.75;;;28.00;99.90;;;;;;5135962;27;20039;-68
2023/07/18 10:25:26;;;;;;;10.88;6.15;;;27.90;99.90;;;;;;5136057;27;20043;-67
2023/07/18 10:27:53;;;;;;;10.73;6.18;;;28.00;99.90;;;;;;5120447;27;20051;-67
2023/07/18 10:30:21;;;;;;;13.75;6.45;;;28.10;99.90;;;;;;5136149;27;20035;-67
2023/07/18 10:32:57;;;;;;;9.85;6.57;;;28.00;99.90;;;;;;5135531;27;20050;-67
2023/07/18 10:35:26;;;;;;;11.43;6.25;;;28.00;99.90;;;;;;5128437;27;20053;-67
2023/07/18 10:38:03;;;;;;;13.65;6.38;;;28.00;99.90;;;;;;5134583;27;20045;-67
2023/07/18 10:40:42;;;;;;;12.90;6.47;;;28.00;99.90;;;;;;5126733;27;20591;-68
2023/07/18 10:43:11;;;;;;;10.40;6.00;;;28.10;99.90;;;;;;5128781;27;20031;-67
2023/07/18 10:45:40;;;;;;;9.63;5.95;;;28.10;99.90;;;;;;5108216;27;20038;-67
2023/07/18 10:48:18;;;;;;;13.65;6.68;;;28.10;99.90;;;;;;5127505;27;20075;-67
2023/07/18 10:50:47;;;;;;;10.40;6.45;;;28.20;99.90;;;;;;5130031;27;20043;-67
2023/07/18 10:53:23;;;;;;;10.65;5.80;;;28.20;99.90;;;;;;5130015;27;20043;-67
2023/07/18 10:55:52;;;;;;;8.63;6.20;;;28.10;99.90;;;;;;5124176;27;20047;-67
2023/07/18 10:58:20;;;;;;;10.43;6.00;;;28.10;99.90;;;;;;5129198;27;20377;-67
2023/07/18 11:00:48;;;;;;;8.07;5.75;;;28.10;99.90;;;;;;5133239;27;20046;-67
2023/07/18 11:03:22;;;;;;;9.70;5.70;;;28.10;99.90;;;;;;5135290;27;20100;-67
2023/07/18 11:05:51;;;;;;;9.02;5.97;;;28.10;99.90;;;;;;5129879;27;20076;-67
2023/07/18 11:08:26;;;;;;;12.60;5.90;;;28.20;99.90;;;;;;5128496;27;20032;-68
2023/07/18 11:11:00;;;;;;;8.90;6.00;;;28.10;99.90;;;;;;5134921;27;20038;-68
2023/07/18 11:13:28;;;;;;;7.97;5.80;;;28.20;99.90;;;;;;5135129;27;20039;-68
2023/07/18 11:16:08;;;;;;;11.02;6.18;;;28.20;99.90;;;;;;5126399;27;20040;-68
2023/07/18 11:18:37;;;;;;;7.75;5.93;;;28.20;99.90;;;;;;5134837;27;20042;-68
2023/07/18 11:21:04;;;;;;;12.95;6.00;;;28.20;99.90;;;;;;5126459;27;20035;-68
2023/07/18 11:23:32;;;;;;;11.05;5.75;;;28.20;99.90;;;;;;5103599;28;20043;-67
2023/07/18 11:26:08;;;;;;;11.38;6.45;;;28.20;99.90;;;;;;5134045;27;20051;-67
2023/07/18 11:28:36;;;;;;;11.85;5.88;;;28.30;99.90;;;;;;5130178;27;20541;-67
2023/07/18 11:31:02;;;;;;;7.75;5.80;;;28.30;99.90;;;;;;5134592;27;20031;-68
2023/07/18 11:33:31;;;;;;;;;;;28.30;99.90;;;;;;5133313;27;20046;-67
2023/07/18 11:35:58;;;;;;;8.85;5.90;;;28.30;99.90;;;;;;5134580;27;19920;-68
2023/07/18 11:38:29;;;;;;;10.77;6.45;;;28.40;99.90;;;;;;5134430;27;20043;-67
2023/07/18 11:40:57;;;;;;;10.52;5.32;;;28.40;99.90;;;;;;5125578;27;20039;-67
2023/07/18 11:43:29;;;;;;;12.93;6.32;;;28.50;99.90;;;;;;5125939;27;20039;-67
2023/07/18 11:45:59;;;;;;;9.73;6.38;;;28.60;99.90;;;;;;5134178;27;20039;-67
2023/07/18 11:48:27;;;;;;;15.13;6.40;;;28.60;99.90;;;;;;5134343;27;20087;-67
2023/07/18 11:50:54;;;;;;;11.13;5.97;;;28.60;99.90;;;;;;5130132;27;20070;-67
2023/07/18 11:53:27;;;;;;;;;;;28.70;99.90;;;;;;5128836;27;20040;-67
2023/07/18 11:55:55;;;;;;;8.88;4.85;;;28.80;99.90;;;;;;5134233;27;19919;-67
2023/07/18 11:58:23;;;;;;;11.43;6.15;;;28.60;99.90;;;;;;5133889;27;20429;-67
2023/07/18 12:00:50;;;;;;;12.10;5.65;;;28.50;99.90;;;;;;5134016;27;20039;-68
2023/07/18 12:03:17;;;;;;;10.65;5.85;;;28.70;99.90;;;;;;5132569;27;20035;-67
2023/07/18 12:05:43;;;;;;;;;;;28.70;99.90;;;;;;5134376;27;20031;-67
2023/07/18 12:08:10;;;;;;;10.25;5.90;;;28.70;99.90;;;;;;5133899;27;19919;-67
2023/07/18 12:10:37;;;;;;;;;;;28.60;99.90;;;;;;5129822;27;20054;-67
2023/07/18 12:13:04;;;;;;;9.75;5.53;;;28.50;99.90;;;;;;5133872;27;19970;-67
2023/07/18 12:15:31;;;;;;;;;;;28.50;99.90;;;;;;5127050;27;20039;-67
2023/07/18 12:17:57;;;;;;;9.88;6.28;;;28.60;99.90;;;;;;5133391;27;19919;-67
2023/07/18 12:20:25;;;;;;;;;;;28.70;99.90;;;;;;5134359;27;20155;-67
2023/07/18 12:22:52;;;;;;;13.25;6.30;;;28.60;99.90;;;;;;5130714;27;19976;-67
2023/07/18 12:25:19;;;;;;;;;;;28.70;99.90;;;;;;5129513;27;20039;-67
2023/07/18 12:27:46;;;;;;;11.32;6.00;;;28.70;99.90;;;;;;5132920;27;20390;-67
2023/07/18 12:30:13;;;;;;;8.15;5.25;;;28.70;99.90;;;;;;5115275;27;20035;-67
2023/07/18 12:32:39;;;;;;;;;;;28.80;99.90;;;;;;5133853;27;20138;-67
2023/07/18 12:35:07;;;;;;;11.40;6.07;;;28.90;99.90;;;;;;5123958;27;20043;-67
2023/07/18 12:37:33;;;;;;;8.38;5.75;;;29.00;99.90;;;;;;5125972;27;20049;-67
2023/07/18 12:40:00;;;;;;;;;;;29.20;99.90;;;;;;5132297;27;20046;-67
2023/07/18 12:42:28;;;;;;;8.80;5.80;;;29.20;99.90;;;;;;5133486;27;19927;-67
2023/07/18 12:44:54;;;;;;;11.98;5.82;;;29.30;99.90;;;;;;5133304;27;20345;-68
2023/07/18 12:47:21;;;;;;;;;;;29.20;99.90;;;;;;5131066;27;20039;-68
2023/07/18 12:49:48;;;;;;;8.52;5.40;;;28.90;99.90;;;;;;5133310;27;19926;-68
2023/07/18 12:52:17;;;;;;;8.40;5.57;;;28.40;99.90;;;;;;5114538;27;20050;-68